Khudzhand Airport
UTDL : now visible

Airfield :











YOU CAN JOIN US ON...

 
LOGIN :

Register | Disclaimer

   EN    FR    IT 

 









Legend :    VFR   Marginal VFR   IFR   Intensive IFR   Very Intensive IFR
Visi :
Ceiling :
>= 8 km
>= 3000ft
5 to 8 km
1000 to 3000 ft
1500m to 5 km
500 to 1000 ft
800 to 1500m
200 to 500 ft
< 800m
< 200 ft
Symbols :   Thunderstorms  Fog  Heavy snow  Heavy precipitations  Wind > 20 kt






- Airport Elevation : 1450 ft
- IATA code : LBD


UTDL - Khudzhand

CURRENT METAR :
  • 240630Z 07002MPS 2100 BR OVC070 10/08 Q1021 R08/29//50 NOSIG RMK QFE726/0968

EXPIRED METARs :
  • 240600Z 07003MPS 1700 R08/1800N BR OVC070 10/08 Q1020 R08/29//50 NOSIG RMK QFE726/0968
  • 240530Z 07003MPS 1500 1400NW R08/1500U BR SCT053 OVC066 09/08 Q1020 R08/29//50 NOSIG RMK QFE726/0968
  • 240500Z 08002MPS 1300 1200W R08/1200U BR FEW003 SCT047 OVC070 09/08 Q1020 R08/29//50 NOSIG RMK QBB110 QFE726/0968
  • 240430Z 07003MPS 1200 R08/1200U BR FEW003 SCT049 OVC070 08/07 Q1020 R08/29//50 NOSIG RMK QBB110 QFE726/0968
  • 240400Z 06003MPS 1200 R08/1200U BR OVC066 08/07 Q1020 R08/29//50 NOSIG RMK QFE726/0968

TAF TAF UTDL
Valid from the 24 at 07:00 until the 24 at 19:00 UTC


240600Z 2407/2419 08005MPS 2500 BR SCT011 BKN040
TEMPO 2407/2410 VRB02MPS 1700 BR



MET'MAP, your aeronautical weather chart ! - Copyright ORBIFLY December 2007 - Disclaimer

ORBIFLY MET'MAP TEAM :

Programming & Development : Alexandra Zaïnal
Concept & original design : Baudouin d'Aumeries
Assistance for programming : Marc-Olivier Méhu
Technical & hardware support : Manuel Goepfert

Contact : metmap@orbifly.com




SOURCES & CREDITS :

   NOAA       Earth
Advisory